createdAt,value
2018-11-29T00:01:10.693Z,8.23
2018-11-29T00:03:42.881Z,10.60
2018-11-29T00:06:15.097Z,9.20
2018-11-29T00:08:47.722Z,7.50
2018-11-29T00:11:20.307Z,10.57
2018-11-29T00:13:53.588Z,10.30
2018-11-29T00:16:26.302Z,5.73
2018-11-29T00:18:58.864Z,13.37
2018-11-29T00:21:32.688Z,10.70
2018-11-29T00:24:05.136Z,8.87
2018-11-29T00:26:38.263Z,8.17
2018-11-29T00:29:11.345Z,6.00
2018-11-29T00:31:44.732Z,11.13
2018-11-29T00:34:17.477Z,9.03
2018-11-29T00:36:51.555Z,25.70
2018-11-29T00:39:24.604Z,15.03
2018-11-29T00:41:57.472Z,8.77
2018-11-29T00:44:30.307Z,6.50
2018-11-29T00:47:03.971Z,6.40
2018-11-29T00:49:36.727Z,9.60
2018-11-29T00:52:09.361Z,8.27
2018-11-29T00:54:42.143Z,6.87
2018-11-29T00:57:16.262Z,6.50
2018-11-29T00:59:49.621Z,7.53
2018-11-29T01:02:22.723Z,10.10
2018-11-29T01:04:57.440Z,10.67
2018-11-29T01:07:30.772Z,11.60
2018-11-29T01:10:03.579Z,11.33
2018-11-29T01:12:37.227Z,9.83
2018-11-29T01:15:11.942Z,5.93
2018-11-29T01:17:45.792Z,43.30
2018-11-29T01:20:22.008Z,29.60
2018-11-29T01:22:54.874Z,10.47
2018-11-29T01:25:27.740Z,8.20
2018-11-29T01:28:00.302Z,7.50
2018-11-29T01:33:21.867Z,13.33
2018-11-29T01:35:54.058Z,9.00
2018-11-29T01:38:27.243Z,5.73
2018-11-29T01:40:59.946Z,7.23
2018-11-29T01:43:32.737Z,6.60
2018-11-29T01:46:06.069Z,9.07
2018-11-29T01:48:39.122Z,7.40
2018-11-29T01:51:11.692Z,7.73
2018-11-29T01:53:44.390Z,8.08
2018-11-29T01:56:17.177Z,6.63
2018-11-29T01:58:51.867Z,6.50
2018-11-29T02:01:25.096Z,6.50
2018-11-29T02:03:58.750Z,7.70
2018-11-29T02:06:31.076Z,7.07
2018-11-29T02:09:05.016Z,6.60
2018-11-29T02:11:38.118Z,7.10
2018-11-29T02:14:11.187Z,7.07
2018-11-29T02:16:45.303Z,6.80
2018-11-29T02:19:18.545Z,5.47
2018-11-29T02:22:02.062Z,4.07
2018-11-29T02:24:34.386Z,4.80
2018-11-29T02:27:09.594Z,6.20
2018-11-29T02:29:42.628Z,5.70
2018-11-29T02:32:15.551Z,6.20
2018-11-29T02:34:48.451Z,7.37
2018-11-29T02:40:01.426Z,8.08
2018-11-29T02:42:34.058Z,8.60
2018-11-29T02:45:07.800Z,40.17
2018-11-29T02:47:42.042Z,8.40
2018-11-29T02:50:15.508Z,7.33
2018-11-29T02:52:48.536Z,6.30
2018-11-29T02:55:22.540Z,6.00
2018-11-29T02:57:55.539Z,7.13
2018-11-29T03:00:28.357Z,5.13
2018-11-29T03:03:01.400Z,5.62
2018-11-29T03:05:33.749Z,6.23
2018-11-29T03:08:07.729Z,8.53
2018-11-29T03:10:40.083Z,7.03
2018-11-29T03:13:12.980Z,9.00
2018-11-29T03:15:45.482Z,7.40
2018-11-29T03:18:18.521Z,7.50
2018-11-29T03:20:53.630Z,5.83
2018-11-29T03:23:25.971Z,11.17
2018-11-29T03:25:58.255Z,12.27
2018-11-29T03:28:30.447Z,44.17
2018-11-29T03:31:03.065Z,62.43
2018-11-29T03:33:35.474Z,112.40
2018-11-29T03:36:11.644Z,74.42
2018-11-29T03:38:45.077Z,19.80
2018-11-29T03:44:03.824Z,7.37
2018-11-29T03:46:36.272Z,7.00
2018-11-29T03:49:09.227Z,7.97
2018-11-29T03:51:42.911Z,6.77
2018-11-29T03:54:16.856Z,5.90
2018-11-29T03:56:49.543Z,5.83
2018-11-29T03:59:23.039Z,9.13
2018-11-29T04:01:57.228Z,6.43
2018-11-29T04:04:29.740Z,6.90
2018-11-29T04:07:02.857Z,7.97
2018-11-29T04:09:35.060Z,6.43
2018-11-29T04:12:11.933Z,7.30
2018-11-29T04:14:45.889Z,6.80
2018-11-29T04:17:19.289Z,6.33
2018-11-29T04:19:52.631Z,9.60
2018-11-29T04:22:25.675Z,7.57
2018-11-29T04:24:58.453Z,7.17
2018-11-29T04:27:31.377Z,7.03
2018-11-29T04:30:04.189Z,7.63
2018-11-29T04:32:40.977Z,7.73
2018-11-29T04:35:14.523Z,7.43
2018-11-29T04:37:47.306Z,8.50
2018-11-29T04:40:20.418Z,7.50
2018-11-29T04:42:53.997Z,8.33
2018-11-29T04:45:26.207Z,12.63
2018-11-29T04:47:59.271Z,84.07
2018-11-29T04:50:31.446Z,89.00
2018-11-29T04:53:03.766Z,53.60
2018-11-29T04:55:36.859Z,40.55
2018-11-29T04:58:10.540Z,28.03
2018-11-29T05:00:43.405Z,15.57
2018-11-29T05:03:16.105Z,15.90
2018-11-29T05:05:49.084Z,14.40
2018-11-29T05:08:21.339Z,16.43
2018-11-29T05:10:53.519Z,11.37
2018-11-29T05:13:26.301Z,9.43
2018-11-29T05:15:58.497Z,8.40
2018-11-29T05:18:31.100Z,7.60
2018-11-29T05:21:03.687Z,6.03
2018-11-29T05:23:36.855Z,5.27
2018-11-29T05:26:11.987Z,4.50
2018-11-29T05:28:45.257Z,5.20
2018-11-29T05:31:17.861Z,4.93
2018-11-29T05:33:52.041Z,5.00
2018-11-29T05:36:25.968Z,5.40
2018-11-29T05:38:58.230Z,5.13
2018-11-29T05:41:30.411Z,6.12
2018-11-29T05:44:03.905Z,6.13
2018-11-29T05:46:36.825Z,13.87
2018-11-29T05:49:09.858Z,33.40
2018-11-29T05:51:42.604Z,35.40
2018-11-29T05:54:15.387Z,51.53
2018-11-29T05:56:48.846Z,80.30
2018-11-29T05:59:21.428Z,79.83
2018-11-29T06:01:55.577Z,73.20
2018-11-29T06:04:29.499Z,32.90
2018-11-29T06:07:02.622Z,17.97
2018-11-29T06:09:35.756Z,11.00
2018-11-29T06:12:08.328Z,7.23
2018-11-29T06:14:40.970Z,7.07
2018-11-29T06:17:13.581Z,5.97
2018-11-29T06:19:46.278Z,5.57
2018-11-29T06:22:18.950Z,6.50
2018-11-29T06:24:52.314Z,6.20
2018-11-29T06:27:25.692Z,9.97
2018-11-29T06:29:58.988Z,7.83
2018-11-29T06:32:31.774Z,9.00
2018-11-29T06:35:05.139Z,8.50
2018-11-29T06:37:38.746Z,7.92
2018-11-29T06:40:14.343Z,6.67
2018-11-29T06:42:47.218Z,6.20
2018-11-29T06:45:22.633Z,5.83
2018-11-29T06:47:55.698Z,6.40
2018-11-29T06:50:29.640Z,6.37
2018-11-29T06:53:02.802Z,6.13
2018-11-29T06:55:35.119Z,6.77
2018-11-29T06:58:09.216Z,6.20
2018-11-29T07:00:42.111Z,7.75
2018-11-29T07:03:15.846Z,7.13
2018-11-29T07:05:48.645Z,6.77
2018-11-29T07:08:21.252Z,6.93
2018-11-29T07:10:54.450Z,7.47
2018-11-29T07:13:27.341Z,8.57
2018-11-29T07:16:00.638Z,8.47
2018-11-29T07:18:33.307Z,7.87
2018-11-29T07:21:18.830Z,7.27
2018-11-29T07:23:51.631Z,6.87
2018-11-29T07:26:24.114Z,7.20
2018-11-29T07:28:56.848Z,7.30
2018-11-29T07:31:29.800Z,7.30
2018-11-29T07:34:02.938Z,7.92
2018-11-29T07:36:35.359Z,7.73
2018-11-29T07:39:10.495Z,7.53
2018-11-29T07:41:43.065Z,7.83
2018-11-29T07:44:15.775Z,7.73
2018-11-29T07:46:48.652Z,7.57
2018-11-29T07:49:20.822Z,7.73
2018-11-29T07:51:53.484Z,7.50
2018-11-29T07:54:26.261Z,7.73
2018-11-29T07:57:02.877Z,7.53
2018-11-29T07:59:35.886Z,7.67
2018-11-29T08:02:08.164Z,7.23
2018-11-29T08:04:41.054Z,7.33
2018-11-29T08:07:14.571Z,7.47
2018-11-29T08:09:47.731Z,6.70
2018-11-29T08:12:21.547Z,7.43
2018-11-29T08:14:54.720Z,6.63
2018-11-29T08:17:26.956Z,7.60
2018-11-29T08:19:59.762Z,6.80
2018-11-29T08:22:32.052Z,6.83
2018-11-29T08:25:04.899Z,6.13
2018-11-29T08:27:37.995Z,6.13
2018-11-29T08:30:15.591Z,7.23
2018-11-29T08:32:49.602Z,9.95
2018-11-29T08:35:22.935Z,8.13
2018-11-29T08:37:55.768Z,7.17
2018-11-29T08:40:27.998Z,9.03
2018-11-29T08:43:02.016Z,7.40
2018-11-29T08:45:34.234Z,7.33
2018-11-29T08:48:06.753Z,8.23
2018-11-29T08:50:38.961Z,7.77
2018-11-29T08:53:12.364Z,7.60
2018-11-29T08:55:45.394Z,9.75
2018-11-29T08:58:18.988Z,8.80
2018-11-29T09:00:51.439Z,10.23
2018-11-29T09:03:25.805Z,8.83
2018-11-29T09:05:58.400Z,8.17
2018-11-29T09:08:30.954Z,8.80
2018-11-29T09:11:03.293Z,10.63
2018-11-29T09:13:35.517Z,8.80
2018-11-29T09:16:07.922Z,9.55
2018-11-29T09:18:40.900Z,7.40
2018-11-29T09:21:13.151Z,7.57
2018-11-29T09:23:46.678Z,6.80
2018-11-29T09:26:19.106Z,11.57
2018-11-29T09:28:51.535Z,10.40
2018-11-29T09:31:23.863Z,9.47
2018-11-29T09:33:56.052Z,9.20
2018-11-29T09:36:28.253Z,8.90
2018-11-29T09:39:02.698Z,8.20
2018-11-29T09:41:35.391Z,8.47
2018-11-29T09:44:07.698Z,8.80
2018-11-29T09:46:39.961Z,7.90
2018-11-29T09:49:12.169Z,10.63
2018-11-29T09:51:44.467Z,9.70
2018-11-29T09:54:16.681Z,9.27
2018-11-29T09:56:49.459Z,9.47
2018-11-29T09:59:22.802Z,10.40
2018-11-29T10:01:56.230Z,7.43
2018-11-29T10:04:28.501Z,8.73
2018-11-29T10:07:03.280Z,8.50
2018-11-29T10:09:36.678Z,8.50
2018-11-29T10:12:09.446Z,10.33
2018-11-29T10:14:41.700Z,10.87
2018-11-29T10:17:16.141Z,10.10
2018-11-29T10:19:49.016Z,8.93
2018-11-29T10:22:23.613Z,9.97
2018-11-29T10:24:56.821Z,15.10
2018-11-29T10:27:30.313Z,9.57
2018-11-29T10:30:04.024Z,10.30
2018-11-29T10:32:36.416Z,13.40
2018-11-29T10:35:11.779Z,14.57
2018-11-29T10:37:44.443Z,12.00
2018-11-29T10:40:16.711Z,11.63
2018-11-29T10:42:49.421Z,13.80
2018-11-29T10:45:22.654Z,14.80
2018-11-29T10:47:56.677Z,15.95
2018-11-29T10:50:29.887Z,11.37
2018-11-29T10:53:03.403Z,11.10
2018-11-29T10:55:36.298Z,9.60
2018-11-29T10:58:09.039Z,18.17
2018-11-29T11:00:46.256Z,15.00
2018-11-29T11:03:21.371Z,16.17
2018-11-29T11:05:55.048Z,18.83
2018-11-29T11:08:28.239Z,13.60
2018-11-29T11:11:04.808Z,11.07
2018-11-29T11:13:38.377Z,12.37
2018-11-29T11:16:11.501Z,12.90
2018-11-29T11:18:43.776Z,16.53
2018-11-29T11:21:16.024Z,16.07
2018-11-29T11:23:48.606Z,14.00
2018-11-29T11:26:22.295Z,21.20
2018-11-29T11:28:55.672Z,19.57
2018-11-29T11:31:31.027Z,15.60
2018-11-29T11:34:01.002Z,16.97
2018-11-29T11:36:34.205Z,12.23
2018-11-29T11:39:09.099Z,12.97
2018-11-29T11:41:43.446Z,19.67
2018-11-29T11:44:17.435Z,13.48
2018-11-29T11:46:52.001Z,14.50
2018-11-29T11:49:24.248Z,12.83
2018-11-29T11:51:58.164Z,12.87
2018-11-29T11:54:34.975Z,11.90
2018-11-29T11:57:07.642Z,13.95
2018-11-29T11:59:40.303Z,24.60
2018-11-29T12:02:13.303Z,14.50
2018-11-29T12:04:48.739Z,14.33
2018-11-29T12:07:18.436Z,10.28
2018-11-29T12:09:52.339Z,15.97
2018-11-29T12:12:36.850Z,14.53
2018-11-29T12:15:12.381Z,14.07
2018-11-29T12:17:45.837Z,13.00
2018-11-29T12:20:25.380Z,18.13
2018-11-29T12:23:04.564Z,12.70
2018-11-29T12:25:37.390Z,20.90
2018-11-29T12:28:10.589Z,22.43
2018-11-29T12:30:49.558Z,23.32
2018-11-29T12:33:22.480Z,22.23
2018-11-29T12:35:56.930Z,16.90
2018-11-29T12:38:31.835Z,19.07
2018-11-29T12:41:04.153Z,19.33
2018-11-29T12:43:37.104Z,18.92
2018-11-29T12:46:11.098Z,18.63
2018-11-29T12:48:43.410Z,15.83
2018-11-29T12:51:16.786Z,16.10
2018-11-29T12:53:49.562Z,11.13
2018-11-29T12:56:22.151Z,15.70
2018-11-29T12:58:59.977Z,12.07
2018-11-29T13:01:34.223Z,12.93
2018-11-29T13:04:06.891Z,12.90
2018-11-29T13:06:39.354Z,18.17
2018-11-29T13:09:14.079Z,15.47
2018-11-29T13:11:46.661Z,21.57
2018-11-29T13:14:19.177Z,11.57
2018-11-29T13:16:52.087Z,17.87
2018-11-29T13:19:35.713Z,17.17
2018-11-29T13:22:24.196Z,14.97
2018-11-29T13:24:56.637Z,18.37
2018-11-29T13:27:38.881Z,14.40
2018-11-29T13:30:14.641Z,8.37
2018-11-29T13:32:47.292Z,8.40
2018-11-29T13:35:26.694Z,9.30
2018-11-29T13:38:18.124Z,17.80
2018-11-29T13:40:56.238Z,15.43
2018-11-29T13:43:28.451Z,8.97
2018-11-29T13:46:00.766Z,9.20
2018-11-29T13:48:33.032Z,11.30
2018-11-29T13:51:15.228Z,8.40
2018-11-29T13:53:48.453Z,13.20
2018-11-29T13:56:21.688Z,14.57
2018-11-29T14:01:33.999Z,10.70
2018-11-29T14:04:07.481Z,12.63
2018-11-29T14:06:40.291Z,14.63
2018-11-29T14:09:14.031Z,38.50
2018-11-29T14:11:52.752Z,24.90
2018-11-29T14:14:24.980Z,28.85
2018-11-29T14:17:01.799Z,16.77
2018-11-29T14:19:38.125Z,15.27
2018-11-29T14:22:11.359Z,18.53
2018-11-29T14:24:43.779Z,74.77
2018-11-29T14:27:17.745Z,21.37
2018-11-29T14:29:52.383Z,60.07
2018-11-29T14:32:33.673Z,35.00
2018-11-29T14:44:21.451Z,13.43
2018-11-29T14:46:53.989Z,13.80
2018-11-29T14:49:35.981Z,15.93
2018-11-29T15:08:53.993Z,13.17
2018-11-29T15:11:29.324Z,39.63
2018-11-29T15:14:08.924Z,14.00
2018-11-29T15:21:29.598Z,17.77
2018-11-29T15:24:26.073Z,15.40
2018-11-29T15:27:13.320Z,24.20
2018-11-29T15:29:46.475Z,11.17
2018-11-29T15:32:27.175Z,23.17
2018-11-29T15:35:00.710Z,18.33
2018-11-29T15:37:33.145Z,17.17
2018-11-29T15:40:05.670Z,17.33
2018-11-29T15:42:38.785Z,14.47
2018-11-29T15:45:13.890Z,16.50
2018-11-29T15:47:46.314Z,14.13
2018-11-29T15:50:36.999Z,13.77
2018-11-29T15:53:30.094Z,17.97
2018-11-29T15:56:21.400Z,15.85
2018-11-29T15:59:07.713Z,16.57
2018-11-29T16:02:05.071Z,27.10
2018-11-29T16:08:18.996Z,12.77
2018-11-29T16:17:16.750Z,14.33
2018-11-29T16:19:49.667Z,19.40
2018-11-29T16:22:27.618Z,13.53
2018-11-29T16:25:00.232Z,13.77
2018-11-29T16:27:36.753Z,16.17
2018-11-29T16:30:22.422Z,16.10
2018-11-29T16:33:02.312Z,15.17
2018-11-29T16:35:37.218Z,18.30
2018-11-29T16:38:12.559Z,15.47
2018-11-29T16:40:51.063Z,17.37
2018-11-29T16:43:24.265Z,24.60
2018-11-29T16:46:14.651Z,20.33
2018-11-29T16:48:47.016Z,19.97
2018-11-29T16:51:31.743Z,15.20
2018-11-29T16:54:05.863Z,18.80
2018-11-29T16:56:40.518Z,16.97
2018-11-29T16:59:13.662Z,14.37
2018-11-29T17:01:47.414Z,20.57
2018-11-29T17:04:20.362Z,15.83
2018-11-29T17:06:53.285Z,12.87
2018-11-29T17:09:25.631Z,17.00
2018-11-29T17:14:05.511Z,14.30
2018-11-29T17:16:37.852Z,15.38
2018-11-29T17:19:10.588Z,14.53
2018-11-29T17:21:49.017Z,16.90
2018-11-29T17:24:22.947Z,14.53
2018-11-29T17:26:56.110Z,12.67
2018-11-29T17:29:29.955Z,18.60
2018-11-29T17:32:02.694Z,13.13
2018-11-29T17:34:36.176Z,14.53
2018-11-29T17:37:09.990Z,19.67
2018-11-29T17:39:42.249Z,12.95
2018-11-29T17:42:15.038Z,15.20
2018-11-29T17:44:48.148Z,14.10
2018-11-29T17:47:22.259Z,19.53
2018-11-29T17:49:55.712Z,19.10
2018-11-29T17:52:28.986Z,14.70
2018-11-29T17:55:06.320Z,26.17
2018-11-29T17:57:39.256Z,13.53
2018-11-29T18:00:16.833Z,13.77
2018-11-29T18:02:49.928Z,17.53
2018-11-29T18:05:22.447Z,13.10
2018-11-29T18:07:54.968Z,18.07
2018-11-29T18:10:31.370Z,19.03
2018-11-29T18:13:10.008Z,15.47
2018-11-29T18:15:43.337Z,15.60
2018-11-29T18:18:15.916Z,18.67
2018-11-29T18:20:48.798Z,15.57
2018-11-29T18:23:23.335Z,13.87
2018-11-29T18:25:55.520Z,15.53
2018-11-29T18:28:28.802Z,17.80
2018-11-29T18:31:03.478Z,18.77
2018-11-29T18:33:36.298Z,16.90
2018-11-29T18:36:14.188Z,18.63
2018-11-29T18:38:44.222Z,17.63
2018-11-29T18:41:28.165Z,20.90
2018-11-29T18:44:00.800Z,17.07
2018-11-29T18:46:34.322Z,17.82
2018-11-29T18:49:11.309Z,16.53
2018-11-29T18:51:46.796Z,15.37
2018-11-29T18:54:19.550Z,17.73
2018-11-29T18:56:53.199Z,16.93
2018-11-29T18:59:25.762Z,18.23
2018-11-29T19:01:58.204Z,16.30
2018-11-29T19:04:30.792Z,15.33
2018-11-29T19:07:03.279Z,21.93
2018-11-29T19:09:35.495Z,22.90
2018-11-29T19:12:13.511Z,15.70
2018-11-29T19:44:56.839Z,17.23
2018-11-29T20:00:37.507Z,23.33
2018-11-29T20:03:21.394Z,19.27
2018-11-29T20:05:54.042Z,20.32
2018-11-29T20:08:26.708Z,21.80
2018-11-29T20:11:03.559Z,23.17
2018-11-29T20:13:38.380Z,18.47
2018-11-29T20:16:11.149Z,16.27
2018-11-29T20:18:44.521Z,19.80
2018-11-29T20:21:18.354Z,18.70
2018-11-29T20:23:51.457Z,17.90
2018-11-29T20:26:24.667Z,21.23
2018-11-29T20:28:57.781Z,19.80
2018-11-29T20:31:39.813Z,20.10
2018-11-29T20:34:13.031Z,22.67
2018-11-29T20:36:46.138Z,22.07
2018-11-29T20:39:21.797Z,22.07
2018-11-29T20:41:54.891Z,22.27
2018-11-29T20:44:27.866Z,21.77
2018-11-29T20:47:00.977Z,21.43
2018-11-29T20:49:33.799Z,20.50
2018-11-29T20:52:10.851Z,19.55
2018-11-29T20:54:43.882Z,17.40
2018-11-29T20:57:17.691Z,17.67
2018-11-29T20:59:49.974Z,21.07
2018-11-29T21:02:28.296Z,19.02
2018-11-29T21:05:00.853Z,20.97
2018-11-29T21:07:40.250Z,17.80
2018-11-29T21:10:32.211Z,20.47
2018-11-29T21:13:42.270Z,16.67
2018-11-29T21:16:20.075Z,24.72
2018-11-29T21:18:52.407Z,17.43
2018-11-29T21:21:27.816Z,17.97
2018-11-29T21:24:05.246Z,13.00
2018-11-29T21:26:38.281Z,11.70
2018-11-29T21:29:12.360Z,11.20
2018-11-29T21:31:45.067Z,11.43
2018-11-29T21:34:18.872Z,10.73
2018-11-29T21:36:51.497Z,11.53
2018-11-29T21:39:25.133Z,11.00
2018-11-29T21:41:58.997Z,10.77
2018-11-29T21:44:33.488Z,11.33
2018-11-29T21:47:06.358Z,9.73
2018-11-29T21:49:40.537Z,10.78
2018-11-29T21:52:18.211Z,9.77
2018-11-29T21:54:51.101Z,8.80
2018-11-29T21:57:23.842Z,9.60
2018-11-29T21:59:58.589Z,8.43
2018-11-29T22:02:31.567Z,12.98
2018-11-29T22:05:05.044Z,8.53
2018-11-29T22:07:38.673Z,7.17
2018-11-29T22:10:21.942Z,7.30
2018-11-29T22:13:00.738Z,8.33
2018-11-29T22:15:32.693Z,7.60
2018-11-29T22:18:15.729Z,6.90
2018-11-29T22:20:48.613Z,6.80
2018-11-29T22:23:21.460Z,7.07
2018-11-29T22:25:54.575Z,7.13
2018-11-29T22:28:29.049Z,6.43
2018-11-29T22:31:12.262Z,6.70
2018-11-29T22:33:45.870Z,6.80
2018-11-29T22:36:18.552Z,7.60
2018-11-29T22:38:51.140Z,6.97
2018-11-29T22:41:24.739Z,7.30
2018-11-29T22:43:58.086Z,7.23
2018-11-29T22:46:30.966Z,7.87
2018-11-29T22:49:06.573Z,7.80
2018-11-29T22:51:39.377Z,8.90
2018-11-29T22:54:13.122Z,9.80
2018-11-29T22:56:45.817Z,10.77
2018-11-29T22:59:18.456Z,13.98
2018-11-29T23:01:51.224Z,13.50
2018-11-29T23:04:24.006Z,12.03
2018-11-29T23:06:57.103Z,12.10
2018-11-29T23:09:29.650Z,10.67
2018-11-29T23:12:03.036Z,10.70
2018-11-29T23:14:37.905Z,10.83
2018-11-29T23:17:11.123Z,12.33
2018-11-29T23:19:44.477Z,16.00
2018-11-29T23:22:17.242Z,16.33
2018-11-29T23:24:51.847Z,17.60
2018-11-29T23:27:24.732Z,18.10
2018-11-29T23:29:57.427Z,19.17
2018-11-29T23:32:30.291Z,16.43
2018-11-29T23:35:03.293Z,17.43
2018-11-29T23:37:37.344Z,18.23
2018-11-29T23:40:13.102Z,19.73
2018-11-29T23:42:46.094Z,22.10
2018-11-29T23:45:19.130Z,23.03
2018-11-29T23:47:53.131Z,23.20
2018-11-29T23:50:26.566Z,23.43
2018-11-29T23:52:59.236Z,24.23
2018-11-29T23:55:33.319Z,27.83
2018-11-29T23:58:07.371Z,25.33
